Time;durP1;ratioP1;P1;durP2;ratioP2;P2;SDS_P1;SDS_P2;PMS_P1;PMS_P2;Temp;Humidity;BMP_temperature;BMP_pressure;BME280_temperature;BME280_humidity;BME280_pressure;Samples;Min_cycle;Max_cycle;Signal;HPM_P1;HPM_P2
2024/02/27 05:00:38;;;;;;;1.30;1.20;;;4.80;97.30;;;;;;5915976;23;20372;-88
2024/02/27 05:03:03;;;;;;;1.20;1.10;;;4.80;97.30;;;;;;4953471;28;20442;-83
2024/02/27 05:05:29;;;;;;;1.77;1.67;;;4.80;97.30;;;;;;4963870;28;20178;-83
2024/02/27 05:07:54;;;;;;;2.40;2.20;;;4.80;97.30;;;;;;4955728;28;20285;-84
2024/02/27 05:10:20;;;;;;;1.50;1.40;;;4.80;97.30;;;;;;4952188;28;20183;-83
2024/02/27 05:12:45;;;;;;;1.20;1.10;;;4.80;97.30;;;;;;4933682;29;20591;-83
2024/02/27 05:15:11;;;;;;;1.37;1.27;;;4.80;97.30;;;;;;4933508;29;20200;-83
2024/02/27 05:17:36;;;;;;;1.30;1.20;;;4.70;97.30;;;;;;4933376;29;20190;-83
2024/02/27 05:20:03;;;;;;;1.07;0.97;;;4.70;97.30;;;;;;4933477;29;20230;-84
2024/02/27 05:22:29;;;;;;;2.20;1.83;;;4.70;97.30;;;;;;4934557;29;20953;-84
2024/02/27 05:24:55;;;;;;;3.73;2.10;;;4.60;97.30;;;;;;4933169;28;20435;-83
2024/02/27 05:27:23;;;;;;;2.23;2.03;;;4.60;97.30;;;;;;4933625;29;20739;-82
2024/02/27 05:29:48;;;;;;;1.20;1.10;;;4.60;97.30;;;;;;4931913;29;20694;-83
2024/02/27 05:32:14;;;;;;;2.27;2.10;;;4.50;97.30;;;;;;4932147;29;20538;-83
2024/02/27 05:34:39;;;;;;;4.90;2.10;;;4.50;97.30;;;;;;4930964;29;20180;-83
2024/02/27 05:37:05;;;;;;;1.57;1.47;;;4.50;97.30;;;;;;4932660;29;20235;-84
2024/02/27 05:39:31;;;;;;;1.07;0.97;;;4.50;97.30;;;;;;4937906;29;20617;-83
2024/02/27 05:41:57;;;;;;;3.00;1.53;;;4.50;97.30;;;;;;4935230;29;20231;-82
2024/02/27 05:44:22;;;;;;;1.47;1.37;;;4.50;97.30;;;;;;4939047;28;20505;-84
2024/02/27 05:46:48;;;;;;;1.97;1.87;;;4.50;97.30;;;;;;4933801;29;20247;-83
2024/02/27 05:49:13;;;;;;;1.77;1.67;;;4.50;97.30;;;;;;4934062;29;20214;-85
2024/02/27 05:51:40;;;;;;;1.50;1.40;;;4.50;97.30;;;;;;4933141;28;20200;-83
2024/02/27 05:54:06;;;;;;;2.90;1.30;;;4.50;97.30;;;;;;4933482;29;20202;-82
2024/02/27 05:56:31;;;;;;;1.60;1.50;;;4.40;97.30;;;;;;4935381;29;20459;-83
2024/02/27 05:58:57;;;;;;;1.10;1.00;;;4.40;97.30;;;;;;4940043;29;20327;-83
2024/02/27 06:01:23;;;;;;;3.67;2.53;;;4.40;97.30;;;;;;4944998;29;20223;-83
2024/02/27 06:03:48;;;;;;;1.23;1.17;;;4.40;97.30;;;;;;4946155;29;20192;-84
2024/02/27 06:06:14;;;;;;;2.20;2.00;;;4.40;97.30;;;;;;4941870;29;20731;-83
2024/02/27 06:08:40;;;;;;;1.73;1.40;;;4.30;97.30;;;;;;4935361;29;20203;-83
2024/02/27 06:11:05;;;;;;;1.67;1.63;;;4.30;97.30;;;;;;4933617;28;20538;-84
2024/02/27 06:13:31;;;;;;;1.43;1.30;;;4.20;97.30;;;;;;4933234;29;20259;-86
2024/02/27 06:15:57;;;;;;;1.43;1.33;;;4.20;97.30;;;;;;4932063;29;20259;-83
2024/02/27 06:18:22;;;;;;;0.97;0.87;;;4.10;97.30;;;;;;4933480;29;20188;-84
2024/02/27 06:23:32;;;;;;;1.83;1.73;;;4.10;97.30;;;;;;4934138;29;20566;-84
2024/02/27 06:25:57;;;;;;;2.23;2.03;;;4.10;97.30;;;;;;4940095;29;20458;-83
2024/02/27 06:28:23;;;;;;;1.23;1.13;;;4.10;97.30;;;;;;4932810;28;20187;-83
2024/02/27 06:30:49;;;;;;;1.10;1.00;;;4.10;97.30;;;;;;4933176;29;20207;-83
2024/02/27 06:33:15;;;;;;;1.40;1.30;;;4.10;97.30;;;;;;4932918;29;20429;-84
2024/02/27 06:35:41;;;;;;;1.17;1.07;;;4.10;97.30;;;;;;4932339;28;20701;-84
2024/02/27 06:38:06;;;;;;;1.73;1.63;;;4.20;97.30;;;;;;4935776;29;20207;-84
2024/02/27 06:40:32;;;;;;;1.17;1.07;;;4.20;97.30;;;;;;4932612;29;20203;-84
2024/02/27 06:42:57;;;;;;;1.33;1.23;;;4.10;97.30;;;;;;4932182;29;20183;-84
2024/02/27 06:45:23;;;;;;;2.73;2.57;;;4.20;97.30;;;;;;4933451;29;20242;-84
2024/02/27 06:47:49;;;;;;;1.67;1.67;;;4.20;97.30;;;;;;4932487;29;20601;-84
2024/02/27 06:50:16;;;;;;;6.20;1.73;;;4.20;97.30;;;;;;4933388;29;20219;-84
2024/02/27 06:52:41;;;;;;;1.40;1.30;;;4.20;97.30;;;;;;4933172;29;20460;-84
2024/02/27 06:55:07;;;;;;;2.00;1.90;;;4.20;97.30;;;;;;4932096;29;20427;-83
2024/02/27 06:57:32;;;;;;;2.10;1.33;;;4.20;97.30;;;;;;4934316;29;20182;-84
2024/02/27 06:59:59;;;;;;;6.30;2.17;;;4.20;97.30;;;;;;4935163;29;20184;-84
2024/02/27 07:02:24;;;;;;;1.20;1.10;;;4.20;97.30;;;;;;4932894;29;20337;-84
2024/02/27 07:04:50;;;;;;;1.60;1.50;;;4.20;97.30;;;;;;4930370;29;20424;-84
2024/02/27 07:07:16;;;;;;;2.40;2.20;;;4.20;97.30;;;;;;4932165;29;20195;-83
2024/02/27 07:09:41;;;;;;;1.30;1.20;;;4.20;97.30;;;;;;4933532;29;20192;-84
2024/02/27 07:12:07;;;;;;;1.33;1.23;;;4.30;97.30;;;;;;4933603;29;20200;-84
2024/02/27 07:14:33;;;;;;;1.30;1.20;;;4.30;97.30;;;;;;4932528;29;20184;-85
2024/02/27 07:16:59;;;;;;;1.80;1.70;;;4.30;97.30;;;;;;4933507;29;20203;-84
2024/02/27 07:19:25;;;;;;;1.40;1.30;;;4.30;97.30;;;;;;4930500;29;20431;-84
2024/02/27 07:21:51;;;;;;;3.47;2.33;;;4.30;97.30;;;;;;4931969;29;20845;-84
2024/02/27 07:24:19;;;;;;;1.50;1.40;;;4.30;97.30;;;;;;4933498;29;20195;-84
2024/02/27 07:26:45;;;;;;;1.57;1.50;;;4.40;97.30;;;;;;4933017;29;20184;-84
2024/02/27 07:29:12;;;;;;;1.80;1.47;;;4.40;97.30;;;;;;4937125;29;20420;-84
2024/02/27 07:31:37;;;;;;;2.03;1.93;;;4.40;97.30;;;;;;4929493;29;20204;-84
2024/02/27 07:34:03;;;;;;;1.50;1.40;;;4.40;97.30;;;;;;4935347;29;20506;-83
2024/02/27 07:36:29;;;;;;;2.60;2.30;;;4.40;97.30;;;;;;4935242;29;20235;-84
2024/02/27 07:38:54;;;;;;;5.70;2.40;;;4.50;97.30;;;;;;4935450;29;20211;-84
2024/02/27 07:41:20;;;;;;;4.63;3.03;;;4.50;97.30;;;;;;4935235;29;20223;-84
2024/02/27 07:43:46;;;;;;;1.43;1.37;;;4.50;97.30;;;;;;4935251;29;20689;-84
2024/02/27 07:46:15;;;;;;;7.53;1.77;;;4.50;97.30;;;;;;4935080;29;20190;-84
2024/02/27 07:48:44;;;;;;;6.10;4.13;;;4.50;97.30;;;;;;4935310;28;20184;-84
2024/02/27 07:51:26;;;;;;;1.33;1.23;;;4.60;97.30;;;;;;4936404;29;20440;-84
2024/02/27 07:53:52;;;;;;;4.50;3.40;;;4.60;97.30;;;;;;4930534;29;20424;-84
2024/02/27 07:56:17;;;;;;;1.17;1.00;;;4.60;97.30;;;;;;4935261;29;20817;-84
2024/02/27 07:58:43;;;;;;;1.53;1.43;;;4.60;97.30;;;;;;4935253;28;20187;-84
2024/02/27 08:01:08;;;;;;;1.43;1.33;;;4.70;97.30;;;;;;4934947;29;20780;-84
2024/02/27 08:03:35;;;;;;;1.20;1.10;;;4.70;97.30;;;;;;4934881;29;20180;-84
2024/02/27 08:06:00;;;;;;;1.77;1.67;;;4.70;97.30;;;;;;4934755;29;20251;-83
2024/02/27 08:08:27;;;;;;;2.43;2.23;;;4.70;97.30;;;;;;4935102;29;20694;-84
2024/02/27 08:10:55;;;;;;;2.23;2.03;;;4.80;97.30;;;;;;4934468;28;20709;-84
2024/02/27 08:13:21;;;;;;;2.03;1.90;;;4.80;97.30;;;;;;4934366;28;20531;-84
2024/02/27 08:15:46;;;;;;;1.90;1.80;;;4.80;97.30;;;;;;4934443;29;20546;-84
2024/02/27 08:18:12;;;;;;;2.83;2.63;;;4.90;97.30;;;;;;4943060;29;20271;-84
2024/02/27 08:20:37;;;;;;;2.03;1.90;;;4.90;97.30;;;;;;4933462;29;20612;-84
2024/02/27 08:23:03;;;;;;;3.23;1.77;;;4.90;97.30;;;;;;4933655;29;20235;-84
2024/02/27 08:25:28;;;;;;;2.67;2.30;;;4.90;97.30;;;;;;4935064;29;20191;-84
2024/02/27 08:27:54;;;;;;;3.30;2.80;;;5.00;97.30;;;;;;4934708;29;20447;-82
2024/02/27 08:30:20;;;;;;;1.40;1.30;;;5.00;97.30;;;;;;4935136;29;20673;-84
2024/02/27 08:32:45;;;;;;;1.33;1.23;;;5.00;97.30;;;;;;4934636;29;20590;-84
2024/02/27 08:35:11;;;;;;;1.90;1.80;;;5.00;97.30;;;;;;4933969;29;20180;-84
2024/02/27 08:37:37;;;;;;;3.00;2.10;;;5.00;97.30;;;;;;4939503;29;20559;-84
2024/02/27 08:40:02;;;;;;;1.20;1.10;;;5.00;97.30;;;;;;4933320;29;20180;-84
2024/02/27 08:42:28;;;;;;;4.50;2.53;;;5.00;97.30;;;;;;4933544;29;20200;-84
2024/02/27 08:44:54;;;;;;;3.00;2.33;;;5.00;97.30;;;;;;4934230;29;20190;-84
2024/02/27 08:47:20;;;;;;;2.90;2.70;;;5.10;97.30;;;;;;4934233;29;20254;-84
2024/02/27 08:49:45;;;;;;;4.70;2.10;;;5.10;97.30;;;;;;4935215;29;20560;-84
2024/02/27 08:52:11;;;;;;;2.20;1.93;;;5.20;97.30;;;;;;4933846;29;20900;-84
2024/02/27 08:54:36;;;;;;;1.90;1.80;;;5.30;97.30;;;;;;4933555;29;20192;-84
2024/02/27 08:57:03;;;;;;;2.00;1.73;;;5.40;97.30;;;;;;4934859;29;20203;-84
2024/02/27 08:59:29;;;;;;;2.00;1.93;;;5.40;97.30;;;;;;4934867;29;20184;-84
2024/02/27 09:01:55;;;;;;;2.17;2.00;;;5.50;97.30;;;;;;4933247;29;20474;-83
2024/02/27 09:04:20;;;;;;;2.33;2.13;;;5.50;97.30;;;;;;4933321;29;20215;-84
2024/02/27 09:06:46;;;;;;;6.90;2.20;;;5.50;97.30;;;;;;4933592;29;20191;-84
2024/02/27 09:09:12;;;;;;;3.63;2.00;;;5.60;97.30;;;;;;4933992;29;20271;-84
2024/02/27 09:11:37;;;;;;;2.27;2.07;;;5.60;97.30;;;;;;4933212;29;20575;-84
2024/02/27 09:14:03;;;;;;;2.00;1.90;;;5.70;97.30;;;;;;4935028;29;20724;-83
2024/02/27 09:16:29;;;;;;;1.50;1.40;;;5.60;97.30;;;;;;4934414;29;20208;-84
2024/02/27 09:18:54;;;;;;;2.80;2.60;;;5.60;97.30;;;;;;4934130;29;20270;-82
2024/02/27 09:21:20;;;;;;;3.47;1.83;;;5.60;97.30;;;;;;4933734;28;20211;-83
2024/02/27 09:23:45;;;;;;;3.00;2.33;;;5.60;97.30;;;;;;4933453;29;20211;-84
2024/02/27 09:26:11;;;;;;;3.33;1.83;;;5.60;97.30;;;;;;4933321;29;20274;-84
2024/02/27 09:28:36;;;;;;;6.70;2.97;;;5.60;97.30;;;;;;4933387;29;20192;-84
2024/02/27 09:31:04;;;;;;;1.73;1.63;;;5.60;97.30;;;;;;4932992;28;20211;-83
2024/02/27 09:33:30;;;;;;;3.07;2.87;;;5.70;97.30;;;;;;4934160;29;20183;-84
2024/02/27 09:35:56;;;;;;;2.60;2.40;;;5.70;97.30;;;;;;4934061;29;20464;-84
2024/02/27 09:38:21;;;;;;;4.27;2.40;;;5.70;97.30;;;;;;4935847;29;20435;-84
2024/02/27 09:40:47;;;;;;;1.97;1.87;;;5.70;97.30;;;;;;4930683;29;21329;-84
2024/02/27 09:43:34;;;;;;;1.90;1.73;;;5.80;97.30;;;;;;4931346;29;20243;-84
2024/02/27 09:46:01;;;;;;;1.27;1.17;;;5.90;97.30;;;;;;4928794;29;20279;-83
2024/02/27 09:48:29;;;;;;;3.23;2.70;;;6.00;97.30;;;;;;4928995;29;20446;-83
2024/02/27 09:50:56;;;;;;;5.73;3.83;;;6.00;97.30;;;;;;4932092;29;20966;-84
2024/02/27 09:53:22;;;;;;;8.00;4.90;;;6.00;97.30;;;;;;4932486;29;20444;-84
2024/02/27 09:55:51;;;;;;;2.83;2.40;;;6.00;97.30;;;;;;4932386;29;20895;-84
2024/02/27 09:58:20;;;;;;;4.90;3.13;;;6.10;97.30;;;;;;4932548;29;20439;-84
2024/02/27 10:00:46;;;;;;;2.93;2.63;;;6.10;97.30;;;;;;4932209;29;20534;-85
2024/02/27 10:03:14;;;;;;;2.20;1.50;;;6.10;97.30;;;;;;4932834;29;20515;-84
2024/02/27 10:05:41;;;;;;;1.93;1.80;;;6.20;97.30;;;;;;4933736;29;20215;-84
2024/02/27 10:08:12;;;;;;;3.47;3.27;;;6.30;97.30;;;;;;4932978;29;20432;-84
2024/02/27 10:10:39;;;;;;;3.13;2.90;;;6.30;97.30;;;;;;4939070;23;20430;-62
2024/02/27 10:13:05;;;;;;;2.87;2.53;;;6.40;97.30;;;;;;4930264;29;20956;-62
2024/02/27 10:15:30;;;;;;;5.90;3.20;;;6.40;97.30;;;;;;4929849;29;20499;-62
2024/02/27 10:17:57;;;;;;;2.87;2.63;;;6.40;97.30;;;;;;4930162;29;20172;-62
2024/02/27 10:20:28;;;;;;;2.30;2.03;;;6.30;97.30;;;;;;4929786;29;20183;-62
2024/02/27 10:22:55;;;;;;;4.53;4.23;;;6.30;97.30;;;;;;4931608;29;20411;-62
2024/02/27 10:25:25;;;;;;;6.57;1.93;;;6.30;97.30;;;;;;4931315;29;20427;-62
2024/02/27 10:27:50;;;;;;;4.43;3.67;;;6.30;97.30;;;;;;4927062;29;20465;-62
2024/02/27 10:30:17;;;;;;;3.47;3.27;;;6.30;97.30;;;;;;4930870;29;20423;-62
2024/02/27 10:32:43;;;;;;;3.03;2.43;;;6.30;97.30;;;;;;4932288;29;20438;-62
2024/02/27 10:35:10;;;;;;;4.77;3.00;;;6.30;97.30;;;;;;4933383;29;20531;-63
2024/02/27 10:37:36;;;;;;;2.20;1.80;;;6.40;97.30;;;;;;4947353;28;20467;-62
2024/02/27 10:40:02;;;;;;;6.70;4.60;;;6.30;97.30;;;;;;4931227;29;20514;-62
2024/02/27 10:42:28;;;;;;;3.70;2.67;;;6.40;97.30;;;;;;4930761;29;20451;-62
2024/02/27 10:44:56;;;;;;;4.70;2.73;;;6.40;97.30;;;;;;4931031;29;20507;-62
2024/02/27 10:47:24;;;;;;;4.77;4.47;;;6.30;97.30;;;;;;4929661;29;20844;-62
2024/02/27 10:49:50;;;;;;;5.30;2.50;;;6.30;97.30;;;;;;4929745;29;20479;-62
2024/02/27 10:52:17;;;;;;;3.30;3.07;;;6.30;97.30;;;;;;4930889;29;20436;-62
2024/02/27 10:54:45;;;;;;;4.33;2.87;;;6.40;97.30;;;;;;4934255;29;20200;-62
2024/02/27 10:57:13;;;;;;;4.47;4.17;;;6.30;97.30;;;;;;4931040;29;20459;-62
2024/02/27 10:59:39;;;;;;;2.83;2.63;;;6.30;97.30;;;;;;4929458;29;20498;-62
2024/02/27 11:02:18;;;;;;;7.60;3.90;;;6.30;97.30;;;;;;4926700;29;20455;-62
2024/02/27 11:04:46;;;;;;;7.90;4.67;;;6.20;97.30;;;;;;4933010;29;20921;-62
2024/02/27 11:07:13;;;;;;;3.70;3.43;;;6.20;97.30;;;;;;4933004;29;20427;-62
2024/02/27 11:09:42;;;;;;;4.03;3.33;;;6.20;97.30;;;;;;4933338;29;20502;-62
2024/02/27 11:12:11;;;;;;;7.97;2.63;;;6.10;97.30;;;;;;4932503;29;20490;-62
2024/02/27 11:14:57;;;;;;;5.40;1.57;;;6.10;97.30;;;;;;4934643;29;20424;-62
2024/02/27 11:17:22;;;;;;;12.93;6.63;;;6.20;97.30;;;;;;4932853;29;20463;-62
2024/02/27 11:19:52;;;;;;;3.27;2.40;;;6.20;97.30;;;;;;4934673;29;20430;-62
2024/02/27 11:22:21;;;;;;;2.67;2.30;;;6.30;97.30;;;;;;4938676;29;20199;-62
2024/02/27 11:24:47;;;;;;;5.63;4.47;;;6.30;97.30;;;;;;4934435;29;20424;-62
2024/02/27 11:27:20;;;;;;;11.30;3.70;;;6.40;97.30;;;;;;4934651;29;20454;-62
2024/02/27 11:29:47;;;;;;;8.57;4.90;;;6.40;97.30;;;;;;4934489;29;20431;-62
2024/02/27 11:32:14;;;;;;;3.67;3.47;;;6.30;97.30;;;;;;4932891;29;20859;-62
2024/02/27 11:34:40;;;;;;;12.70;6.20;;;6.30;97.30;;;;;;4934396;29;20424;-62
2024/02/27 11:37:19;;;;;;;3.77;2.40;;;6.30;97.30;;;;;;4935635;29;20876;-62
2024/02/27 11:39:45;;;;;;;5.80;3.40;;;6.30;97.30;;;;;;4937110;29;20510;-63
2024/02/27 11:42:29;;;;;;;2.83;2.67;;;6.30;97.30;;;;;;4932643;29;20476;-62
2024/02/27 11:45:09;;;;;;;3.00;2.40;;;6.30;97.30;;;;;;4932925;29;20427;-62
2024/02/27 11:47:36;;;;;;;2.83;2.63;;;6.30;97.30;;;;;;4933758;29;20419;-62
2024/02/27 11:50:01;;;;;;;12.47;5.97;;;6.30;97.30;;;;;;4934178;29;20423;-62
2024/02/27 11:52:33;;;;;;;9.63;5.97;;;6.30;97.30;;;;;;4934146;29;20435;-62
2024/02/27 11:55:05;;;;;;;15.70;4.80;;;6.20;97.30;;;;;;4932818;29;20168;-62
2024/02/27 11:57:34;;;;;;;12.17;5.47;;;6.30;97.30;;;;;;4930558;29;20424;-63
2024/02/27 12:00:15;;;;;;;4.57;3.43;;;6.40;97.30;;;;;;4934025;29;20435;-62
2024/02/27 12:02:47;;;;;;;7.90;3.50;;;6.40;97.30;;;;;;4931578;29;20418;-62
2024/02/27 12:05:14;;;;;;;2.90;2.70;;;6.40;97.30;;;;;;4932423;29;20419;-62
2024/02/27 12:07:40;;;;;;;8.50;5.57;;;6.50;97.30;;;;;;4932343;29;20428;-62
2024/02/27 12:10:14;;;;;;;9.20;4.30;;;6.40;97.30;;;;;;4933825;29;20812;-62
2024/02/27 12:12:40;;;;;;;7.60;4.83;;;6.40;97.30;;;;;;4932158;29;20219;-60
2024/02/27 12:15:07;;;;;;;5.67;4.63;;;6.40;97.30;;;;;;4933582;29;20420;-62
2024/02/27 12:17:36;;;;;;;6.47;4.23;;;6.40;97.30;;;;;;4933629;28;20428;-62
2024/02/27 12:20:05;;;;;;;9.77;5.80;;;6.40;97.30;;;;;;4935245;29;20487;-62
2024/02/27 12:22:32;;;;;;;6.27;5.33;;;6.30;97.30;;;;;;4928407;29;20435;-62
2024/02/27 12:24:58;;;;;;;4.93;4.47;;;6.30;97.30;;;;;;4931331;29;20431;-62
2024/02/27 12:27:24;;;;;;;5.13;3.40;;;6.20;97.30;;;;;;4948070;28;20440;-62
2024/02/27 12:29:50;;;;;;;7.67;4.90;;;6.30;97.30;;;;;;4931733;29;20440;-62
2024/02/27 12:32:15;;;;;;;9.73;4.50;;;6.30;97.30;;;;;;4931888;29;21129;-62
2024/02/27 12:34:41;;;;;;;11.40;5.77;;;6.20;97.30;;;;;;4933103;29;20222;-62
2024/02/27 12:37:07;;;;;;;3.23;1.97;;;6.20;97.30;;;;;;4948144;28;20266;-62
2024/02/27 12:39:33;;;;;;;7.23;5.23;;;6.10;97.30;;;;;;4931914;29;20675;-62
2024/02/27 12:42:00;;;;;;;6.60;3.97;;;6.10;97.30;;;;;;4931363;29;20211;-62
2024/02/27 12:44:26;;;;;;;5.80;5.50;;;6.00;97.30;;;;;;4933151;29;20428;-63
2024/02/27 12:46:52;;;;;;;8.37;4.90;;;6.00;97.30;;;;;;4932858;29;20515;-62
2024/02/27 12:49:20;;;;;;;7.27;5.07;;;6.00;97.30;;;;;;4933065;29;20180;-62
2024/02/27 12:51:47;;;;;;;5.10;2.67;;;6.00;97.30;;;;;;4935145;29;21031;-63
2024/02/27 12:54:14;;;;;;;14.63;3.20;;;6.00;97.30;;;;;;4932536;29;20420;-62
2024/02/27 12:56:40;;;;;;;12.70;4.13;;;6.00;97.30;;;;;;4932898;29;20522;-63
2024/02/27 12:59:08;;;;;;;9.00;4.77;;;6.00;97.30;;;;;;4931477;29;20431;-62
2024/02/27 13:01:39;;;;;;;7.37;4.80;;;6.00;97.30;;;;;;4931757;29;20200;-62
2024/02/27 13:04:07;;;;;;;8.10;3.53;;;6.00;97.30;;;;;;4931522;29;20486;-63
2024/02/27 13:06:33;;;;;;;7.10;3.80;;;6.00;97.30;;;;;;4931532;29;20525;-62
2024/02/27 13:08:58;;;;;;;3.37;1.90;;;6.00;97.30;;;;;;4932458;29;20936;-63
2024/02/27 13:11:24;;;;;;;7.03;3.07;;;6.00;97.30;;;;;;4931296;29;20285;-62
2024/02/27 13:13:49;;;;;;;12.90;6.40;;;5.90;97.30;;;;;;4928837;29;20192;-62
2024/02/27 13:16:16;;;;;;;11.43;5.97;;;5.90;97.30;;;;;;4932675;29;20704;-62
2024/02/27 13:18:41;;;;;;;8.23;3.20;;;5.90;97.30;;;;;;4931596;29;20199;-62
2024/02/27 13:21:07;;;;;;;4.97;4.47;;;5.90;97.30;;;;;;4931403;29;20431;-63
2024/02/27 13:23:32;;;;;;;15.60;5.20;;;5.80;97.30;;;;;;4935526;29;20194;-63
2024/02/27 13:25:58;;;;;;;5.87;2.80;;;5.80;97.30;;;;;;4933836;29;20269;-62
2024/02/27 13:28:23;;;;;;;7.57;2.97;;;5.80;97.30;;;;;;4947425;28;20188;-62
2024/02/27 13:30:49;;;;;;;6.37;3.10;;;5.80;97.30;;;;;;4932060;29;20251;-62
2024/02/27 13:33:15;;;;;;;3.07;2.80;;;5.80;97.30;;;;;;4934379;29;20195;-62
2024/02/27 13:35:41;;;;;;;3.87;2.70;;;5.80;97.30;;;;;;4930703;29;20211;-62
2024/02/27 13:38:06;;;;;;;7.60;5.53;;;5.70;97.30;;;;;;4935561;29;20736;-62
2024/02/27 13:40:32;;;;;;;6.60;5.07;;;5.70;97.30;;;;;;4933744;29;20212;-63
2024/02/27 13:42:58;;;;;;;4.60;4.30;;;5.70;97.30;;;;;;4932909;29;20179;-63
2024/02/27 13:45:23;;;;;;;7.53;4.30;;;5.70;97.30;;;;;;4930721;28;20191;-62
2024/02/27 13:47:49;;;;;;;6.73;5.20;;;5.70;97.30;;;;;;4929168;29;20552;-62
2024/02/27 13:50:14;;;;;;;20.80;6.10;;;5.70;97.30;;;;;;4934158;29;20180;-62
2024/02/27 13:52:42;;;;;;;5.07;4.30;;;5.70;97.30;;;;;;4930270;29;20168;-62
2024/02/27 13:55:08;;;;;;;8.60;4.13;;;5.60;97.30;;;;;;4934601;29;20677;-62
2024/02/27 13:57:34;;;;;;;11.87;4.27;;;5.60;97.30;;;;;;4931732;29;20419;-62
2024/02/27 13:59:59;;;;;;;10.30;4.30;;;5.60;97.30;;;;;;4934504;29;20684;-62
2024/02/27 14:02:25;;;;;;;5.63;4.03;;;5.60;97.30;;;;;;4930921;29;20207;-62
2024/02/27 14:04:51;;;;;;;10.13;3.20;;;5.60;97.30;;;;;;4932924;29;20719;-65
2024/02/27 14:07:16;;;;;;;6.40;4.27;;;5.60;97.30;;;;;;4929175;29;20716;-63
2024/02/27 14:09:42;;;;;;;7.50;3.60;;;5.60;97.30;;;;;;4936843;29;20198;-62
2024/02/27 14:12:08;;;;;;;9.20;3.40;;;5.60;97.30;;;;;;4951436;28;20346;-62
2024/02/27 14:14:36;;;;;;;5.60;3.17;;;5.60;97.30;;;;;;4934263;29;20187;-62
2024/02/27 14:17:01;;;;;;;7.77;6.30;;;5.70;97.30;;;;;;4936644;29;20235;-63
2024/02/27 14:19:27;;;;;;;11.30;5.33;;;5.70;97.30;;;;;;4946238;28;20458;-63
2024/02/27 14:21:52;;;;;;;4.60;4.33;;;5.70;97.30;;;;;;4932528;29;20672;-62
2024/02/27 14:24:18;;;;;;;6.57;4.60;;;5.70;97.30;;;;;;4931543;29;20227;-63
2024/02/27 14:26:43;;;;;;;5.00;4.10;;;5.70;97.30;;;;;;4930022;29;20188;-63
2024/02/27 14:29:09;;;;;;;9.00;3.90;;;5.70;97.30;;;;;;4948540;28;20180;-63
2024/02/27 14:31:34;;;;;;;4.17;3.77;;;5.60;97.30;;;;;;4929883;29;20203;-62
2024/02/27 14:34:00;;;;;;;4.43;4.03;;;5.60;97.30;;;;;;4931387;29;20549;-63
2024/02/27 14:36:25;;;;;;;11.13;6.30;;;5.60;97.30;;;;;;4928442;29;21054;-63
2024/02/27 14:38:52;;;;;;;5.43;5.13;;;5.50;97.30;;;;;;4932055;29;20653;-62
2024/02/27 14:41:17;;;;;;;6.67;4.10;;;5.50;97.30;;;;;;4932121;29;20199;-63
2024/02/27 14:43:43;;;;;;;8.27;4.90;;;5.50;97.30;;;;;;4945900;28;20427;-63
2024/02/27 14:46:10;;;;;;;2.63;2.07;;;5.40;97.30;;;;;;4929534;29;20188;-62
2024/02/27 14:48:36;;;;;;;3.77;3.57;;;5.40;97.30;;;;;;4931164;29;20502;-62
2024/02/27 14:51:02;;;;;;;4.27;3.57;;;5.40;97.30;;;;;;4929201;29;21091;-63
2024/02/27 14:53:27;;;;;;;6.07;3.03;;;5.40;97.30;;;;;;4948677;28;20218;-63
2024/02/27 14:55:53;;;;;;;4.20;2.33;;;5.40;97.30;;;;;;4941487;29;20295;-63
2024/02/27 14:58:18;;;;;;;8.30;5.00;;;5.40;97.30;;;;;;4935124;29;20195;-63
2024/02/27 15:00:44;;;;;;;6.27;3.57;;;5.30;97.30;;;;;;4930957;29;20204;-62
2024/02/27 15:03:10;;;;;;;5.10;3.13;;;5.40;97.30;;;;;;4946624;28;20182;-63
2024/02/27 15:05:35;;;;;;;4.60;3.60;;;5.40;97.30;;;;;;4930586;29;20263;-63
2024/02/27 15:08:01;;;;;;;11.00;4.47;;;5.30;97.30;;;;;;4932093;29;20191;-62
2024/02/27 15:10:26;;;;;;;16.80;7.13;;;5.40;97.30;;;;;;4931934;29;20199;-63
2024/02/27 15:12:53;;;;;;;10.03;5.77;;;5.30;97.30;;;;;;4932133;29;20202;-63
2024/02/27 15:15:19;;;;;;;6.43;5.50;;;5.30;97.30;;;;;;4932097;29;20180;-62
2024/02/27 15:17:44;;;;;;;6.37;4.83;;;5.30;97.30;;;;;;4931594;29;20435;-63
2024/02/27 15:20:10;;;;;;;22.90;4.77;;;5.30;97.30;;;;;;4928630;29;20204;-63
2024/02/27 15:22:36;;;;;;;6.67;3.90;;;5.20;97.30;;;;;;4929567;29;20314;-63
2024/02/27 15:25:04;;;;;;;11.93;5.97;;;5.20;97.30;;;;;;4929588;29;20832;-63
2024/02/27 15:27:29;;;;;;;6.30;4.00;;;5.20;97.30;;;;;;4925305;29;20180;-63
2024/02/27 15:29:55;;;;;;;6.33;2.97;;;5.20;97.30;;;;;;4930581;29;20440;-64
2024/02/27 15:32:21;;;;;;;5.47;5.17;;;5.20;97.30;;;;;;4930419;28;20763;-63
2024/02/27 15:34:48;;;;;;;7.67;6.67;;;5.20;97.30;;;;;;4930618;29;20601;-62
2024/02/27 15:37:14;;;;;;;15.30;5.93;;;5.20;97.30;;;;;;4930379;29;20206;-63
2024/02/27 15:39:39;;;;;;;4.33;4.03;;;5.20;97.30;;;;;;4931409;29;20531;-63
2024/02/27 15:42:05;;;;;;;6.43;4.17;;;5.20;97.30;;;;;;4929207;29;20456;-63
2024/02/27 15:44:31;;;;;;;5.23;3.00;;;5.20;97.30;;;;;;4930722;29;20180;-63
2024/02/27 15:46:57;;;;;;;8.27;4.83;;;5.20;97.30;;;;;;4929073;29;20451;-63
2024/02/27 15:49:22;;;;;;;16.70;6.77;;;5.20;97.30;;;;;;4932151;28;20802;-64
2024/02/27 15:51:48;;;;;;;10.03;3.70;;;5.30;97.30;;;;;;4935927;29;20208;-63
2024/02/27 15:54:15;;;;;;;14.73;3.50;;;5.30;97.30;;;;;;4932267;29;20188;-63
2024/02/27 15:56:41;;;;;;;9.00;6.67;;;5.20;97.30;;;;;;4933909;29;20478;-63
2024/02/27 15:59:07;;;;;;;10.97;6.43;;;5.20;97.30;;;;;;4933883;29;20415;-63
2024/02/27 16:01:32;;;;;;;3.63;3.03;;;5.20;97.30;;;;;;4933973;29;20443;-63
2024/02/27 16:04:31;;;;;;;4.23;3.67;;;5.20;97.30;;;;;;4936574;29;20217;-63
2024/02/27 16:07:08;;;;;;;7.53;3.80;;;5.20;97.30;;;;;;4932658;29;20657;-63
2024/02/27 16:09:34;;;;;;;7.87;4.30;;;5.20;97.30;;;;;;4928989;29;20420;-63
2024/02/27 16:11:59;;;;;;;14.97;4.17;;;5.20;97.30;;;;;;4933874;29;20835;-63
2024/02/27 16:14:24;;;;;;;6.03;3.23;;;5.20;97.30;;;;;;4933394;29;20581;-63
2024/02/27 16:16:53;;;;;;;4.10;3.90;;;5.20;97.30;;;;;;4930285;29;20223;-63
2024/02/27 16:19:19;;;;;;;11.57;2.80;;;5.20;97.30;;;;;;4933821;29;20188;-62
2024/02/27 16:21:44;;;;;;;4.23;2.13;;;5.20;97.30;;;;;;4931810;29;20828;-63
2024/02/27 16:24:10;;;;;;;8.07;3.00;;;5.20;97.30;;;;;;4934879;29;20188;-63
2024/02/27 16:26:37;;;;;;;3.90;2.50;;;5.20;97.30;;;;;;4934968;29;20239;-63
2024/02/27 16:29:05;;;;;;;23.97;9.03;;;5.20;97.30;;;;;;4932068;29;20188;-63
2024/02/27 16:31:31;;;;;;;9.00;5.00;;;5.20;97.30;;;;;;4931950;29;20454;-63
2024/02/27 16:33:56;;;;;;;7.23;4.93;;;5.20;97.30;;;;;;4932078;29;20440;-63
2024/02/27 16:36:22;;;;;;;11.20;5.37;;;5.20;97.30;;;;;;4935156;29;20943;-63
2024/02/27 16:38:47;;;;;;;11.47;6.53;;;5.20;97.30;;;;;;4932163;29;20179;-63
2024/02/27 16:41:13;;;;;;;8.90;6.53;;;5.20;97.30;;;;;;4932989;29;20203;-63
2024/02/27 16:43:39;;;;;;;7.57;6.73;;;5.20;97.30;;;;;;4934411;29;20558;-63
2024/02/27 16:46:07;;;;;;;7.30;4.53;;;5.20;97.30;;;;;;4931850;29;20436;-63
2024/02/27 16:48:33;;;;;;;7.50;3.00;;;5.20;97.30;;;;;;4933193;29;20716;-66
2024/02/27 16:51:01;;;;;;;10.13;5.50;;;5.20;97.30;;;;;;4931591;29;20452;-63
2024/02/27 16:53:26;;;;;;;4.50;4.20;;;5.20;97.30;;;;;;4932801;29;20428;-63
2024/02/27 16:55:52;;;;;;;7.40;4.97;;;5.20;97.30;;;;;;4932434;29;21043;-63
2024/02/27 16:58:18;;;;;;;2.23;1.80;;;5.20;97.30;;;;;;4932714;29;20219;-63
2024/02/27 17:00:44;;;;;;;7.77;4.53;;;5.20;97.30;;;;;;4930727;29;20696;-62
2024/02/27 17:03:10;;;;;;;3.50;2.97;;;5.20;97.30;;;;;;4931337;29;20459;-63
2024/02/27 17:05:35;;;;;;;8.43;4.70;;;5.20;97.30;;;;;;4932825;29;20474;-63
2024/02/27 17:08:01;;;;;;;6.73;4.43;;;5.20;97.30;;;;;;4931382;29;20274;-63
2024/02/27 17:10:27;;;;;;;7.10;5.70;;;5.10;97.30;;;;;;4932280;29;20627;-63
2024/02/27 17:12:53;;;;;;;12.10;6.13;;;5.20;97.30;;;;;;4932640;29;20188;-63
2024/02/27 17:15:18;;;;;;;23.73;4.90;;;5.20;97.30;;;;;;4932081;29;20430;-63
2024/02/27 17:17:44;;;;;;;4.27;4.00;;;5.20;97.30;;;;;;4932478;29;20184;-63
2024/02/27 17:20:10;;;;;;;6.33;4.47;;;5.20;97.30;;;;;;4932262;29;20271;-63
2024/02/27 17:22:36;;;;;;;12.10;4.63;;;5.20;97.30;;;;;;4932507;29;20420;-63
2024/02/27 17:25:02;;;;;;;5.00;2.93;;;5.20;97.30;;;;;;4931425;29;20436;-63
2024/02/27 17:27:27;;;;;;;3.67;3.47;;;5.20;97.30;;;;;;4932522;29;20184;-63
2024/02/27 17:29:54;;;;;;;7.50;4.50;;;5.20;97.30;;;;;;4932035;29;20955;-63
2024/02/27 17:32:20;;;;;;;3.33;3.17;;;5.20;97.30;;;;;;4930709;29;20680;-63
2024/02/27 17:34:45;;;;;;;8.23;3.90;;;5.20;97.30;;;;;;4929555;29;20435;-63
2024/02/27 17:37:11;;;;;;;3.40;2.83;;;5.20;97.30;;;;;;4930362;29;20208;-63
2024/02/27 17:39:39;;;;;;;3.60;3.40;;;5.20;97.30;;;;;;4928888;29;20188;-63
2024/02/27 17:42:05;;;;;;;6.23;2.90;;;5.20;97.30;;;;;;4931956;29;20840;-63
2024/02/27 17:44:31;;;;;;;11.67;5.53;;;5.20;97.30;;;;;;4932155;29;20498;-63
2024/02/27 17:46:56;;;;;;;3.20;2.93;;;5.20;97.30;;;;;;4930776;29;20785;-63
2024/02/27 17:49:22;;;;;;;6.30;5.27;;;5.20;97.30;;;;;;4931228;29;20561;-63
2024/02/27 17:51:47;;;;;;;9.10;7.60;;;5.20;97.30;;;;;;4931993;29;20238;-63
2024/02/27 17:54:13;;;;;;;5.60;2.93;;;5.20;97.30;;;;;;4930008;29;20192;-63